Time;durP1;ratioP1;P1;durP2;ratioP2;P2;SDS_P1;SDS_P2;PMS_P1;PMS_P2;Temp;Humidity;BMP_temperature;BMP_pressure;BME280_temperature;BME280_humidity;BME280_pressure;Samples;Min_cycle;Max_cycle;Signal;HPM_P1;HPM_P2
2023/04/26 00:00:18;;;;;;;0.50;0.50;;;7.20;99.90;;;;;;4967110;29;20030;-78
2023/04/26 00:02:44;;;;;;;0.40;0.40;;;7.20;99.90;;;;;;4965822;28;20031;-80
2023/04/26 00:05:10;;;;;;;0.38;0.38;;;7.20;99.90;;;;;;4967323;28;20046;-79
2023/04/26 00:07:36;;;;;;;0.35;0.30;;;7.30;99.90;;;;;;4966700;28;20038;-80
2023/04/26 00:10:03;;;;;;;0.32;0.30;;;7.40;99.90;;;;;;4968361;29;20435;-79
2023/04/26 00:12:29;;;;;;;0.30;0.30;;;7.40;99.90;;;;;;4969083;28;20038;-80
2023/04/26 00:14:55;;;;;;;0.88;0.43;;;7.50;99.90;;;;;;4969417;28;20028;-80
2023/04/26 00:17:22;;;;;;;0.40;0.40;;;7.50;99.90;;;;;;4969286;29;20031;-80
2023/04/26 00:19:47;;;;;;;0.15;0.15;;;7.50;99.90;;;;;;4970791;29;20098;-79
2023/04/26 00:22:14;;;;;;;3.72;0.45;;;7.60;99.90;;;;;;4970058;29;20030;-79
2023/04/26 00:24:40;;;;;;;0.30;0.30;;;7.60;99.90;;;;;;4970846;28;20019;-79
2023/04/26 00:27:09;;;;;;;0.25;0.20;;;7.60;99.90;;;;;;4969872;29;20030;-80
2023/04/26 00:29:35;;;;;;;0.20;0.20;;;7.70;99.90;;;;;;4971207;29;20453;-80
2023/04/26 00:32:01;;;;;;;0.95;0.35;;;7.60;99.90;;;;;;4970208;28;20122;-79
2023/04/26 00:34:37;;;;;;;0.82;0.40;;;7.70;99.90;;;;;;4968702;28;20035;-80
2023/04/26 00:37:04;;;;;;;0.40;0.40;;;7.70;99.90;;;;;;4967392;29;20027;-78
2023/04/26 00:39:30;;;;;;;1.98;0.43;;;7.70;99.90;;;;;;4965385;28;20031;-79
2023/04/26 00:41:56;;;;;;;0.25;0.22;;;7.80;99.90;;;;;;4965524;28;20476;-79
2023/04/26 00:44:22;;;;;;;0.95;0.30;;;7.80;99.90;;;;;;4966456;28;20030;-79
2023/04/26 00:46:50;;;;;;;1.15;0.40;;;7.90;99.90;;;;;;4965168;29;20023;-80
2023/04/26 00:49:20;;;;;;;0.40;0.40;;;7.90;99.90;;;;;;4967227;29;20031;-79
2023/04/26 00:51:47;;;;;;;0.35;0.35;;;8.00;99.90;;;;;;4970839;29;20392;-80
2023/04/26 00:54:13;;;;;;;0.95;0.45;;;8.00;99.90;;;;;;4970078;28;20111;-77
2023/04/26 00:56:42;;;;;;;0.40;0.32;;;8.10;99.90;;;;;;4968662;28;20027;-80
2023/04/26 00:59:08;;;;;;;0.20;0.20;;;8.10;99.90;;;;;;4970645;29;20079;-78
2023/04/26 01:01:34;;;;;;;3.72;0.20;;;8.10;99.90;;;;;;4970209;29;20038;-80
2023/04/26 01:04:00;;;;;;;1.05;0.40;;;8.10;99.90;;;;;;4968345;28;20058;-80
2023/04/26 01:06:32;;;;;;;0.68;0.38;;;8.10;99.90;;;;;;4967081;28;20031;-81
2023/04/26 01:09:02;;;;;;;0.57;0.57;;;8.10;99.90;;;;;;4968699;29;20031;-80
2023/04/26 01:11:28;;;;;;;0.20;0.20;;;8.00;99.90;;;;;;4965191;28;20031;-79
2023/04/26 01:13:56;;;;;;;0.30;0.30;;;8.00;99.90;;;;;;4966484;29;20027;-79
2023/04/26 01:16:22;;;;;;;0.40;0.40;;;8.00;99.90;;;;;;4965558;28;20020;-78
2023/04/26 01:18:52;;;;;;;1.17;0.40;;;8.00;99.90;;;;;;4965080;29;20035;-78
2023/04/26 01:21:22;;;;;;;0.55;0.55;;;8.00;99.90;;;;;;4966047;28;20023;-78
2023/04/26 01:23:48;;;;;;;0.50;0.32;;;8.00;99.90;;;;;;4966077;29;20027;-78
2023/04/26 01:26:15;;;;;;;0.73;0.60;;;7.90;99.90;;;;;;4965101;28;20031;-79
2023/04/26 01:28:41;;;;;;;0.57;0.32;;;7.90;99.90;;;;;;4965439;29;20031;-81
2023/04/26 01:31:06;;;;;;;0.68;0.50;;;7.80;99.90;;;;;;4966339;29;20484;-79
2023/04/26 01:33:32;;;;;;;0.20;0.20;;;7.80;99.90;;;;;;4964843;29;20043;-78
2023/04/26 01:35:58;;;;;;;0.20;0.20;;;7.70;99.90;;;;;;4965050;28;20543;-79
2023/04/26 01:38:23;;;;;;;0.40;0.20;;;7.70;99.90;;;;;;4964543;29;20015;-81
2023/04/26 01:40:49;;;;;;;2.05;0.40;;;7.70;99.90;;;;;;4964659;28;20031;-80
2023/04/26 01:43:17;;;;;;;0.20;0.20;;;7.60;99.90;;;;;;4962725;28;20090;-79
2023/04/26 01:45:46;;;;;;;0.40;0.40;;;7.40;99.90;;;;;;4962844;28;20019;-79
2023/04/26 01:48:12;;;;;;;1.05;0.60;;;7.30;99.90;;;;;;4962497;29;20143;-78
2023/04/26 01:50:38;;;;;;;3.10;0.57;;;7.20;99.90;;;;;;4961267;28;20064;-79
2023/04/26 01:53:03;;;;;;;0.17;0.17;;;7.10;99.90;;;;;;4960288;29;20034;-79
2023/04/26 01:55:29;;;;;;;0.22;0.22;;;7.00;99.90;;;;;;4960363;28;20035;-79
2023/04/26 01:57:55;;;;;;;0.40;0.40;;;6.90;99.90;;;;;;4960179;29;20075;-79
2023/04/26 02:00:21;;;;;;;0.43;0.30;;;6.90;99.90;;;;;;4960348;28;20024;-79
2023/04/26 02:02:46;;;;;;;0.20;0.20;;;6.90;99.90;;;;;;4960790;28;20023;-79
2023/04/26 02:05:12;;;;;;;1.35;0.43;;;6.70;99.90;;;;;;4961138;28;20046;-80
2023/04/26 02:07:38;;;;;;;0.35;0.35;;;6.70;99.90;;;;;;4961921;29;20034;-78
2023/04/26 02:10:04;;;;;;;0.52;0.38;;;6.60;99.90;;;;;;4960521;29;20107;-79
2023/04/26 02:12:30;;;;;;;0.52;0.30;;;6.60;99.90;;;;;;4960245;28;20480;-79
2023/04/26 02:14:55;;;;;;;0.40;0.35;;;6.50;99.90;;;;;;4962476;28;20024;-79
2023/04/26 02:17:21;;;;;;;0.77;0.60;;;6.50;99.90;;;;;;4961607;29;20054;-79
2023/04/26 02:19:47;;;;;;;0.30;0.30;;;6.60;99.90;;;;;;4960370;29;20020;-81
2023/04/26 02:22:12;;;;;;;0.28;0.28;;;6.50;99.90;;;;;;4962000;29;20023;-78
2023/04/26 02:24:38;;;;;;;0.90;0.43;;;6.60;99.90;;;;;;4960614;28;20031;-80
2023/04/26 02:27:04;;;;;;;0.47;0.38;;;6.60;99.90;;;;;;4961409;28;20094;-80
2023/04/26 02:29:30;;;;;;;1.63;0.25;;;6.50;99.90;;;;;;4962221;29;20031;-79
2023/04/26 02:31:57;;;;;;;1.73;0.20;;;6.50;99.90;;;;;;4962326;28;20087;-78
2023/04/26 02:34:23;;;;;;;0.95;0.45;;;6.60;99.90;;;;;;4962741;29;20023;-79
2023/04/26 02:36:48;;;;;;;0.85;0.35;;;6.60;99.90;;;;;;4961479;29;20035;-80
2023/04/26 02:39:14;;;;;;;0.43;0.38;;;6.60;99.90;;;;;;4961793;28;20656;-79
2023/04/26 02:41:40;;;;;;;1.10;0.55;;;6.60;99.90;;;;;;4962375;28;20038;-78
2023/04/26 02:44:07;;;;;;;0.40;0.40;;;6.70;99.90;;;;;;4963345;29;20028;-79
2023/04/26 02:46:32;;;;;;;3.30;0.57;;;6.80;99.90;;;;;;4961820;28;20027;-79
2023/04/26 02:48:58;;;;;;;0.30;0.30;;;6.80;99.90;;;;;;4963015;29;20027;-80
2023/04/26 02:51:24;;;;;;;0.60;0.38;;;6.90;99.90;;;;;;4963510;29;20034;-79
2023/04/26 02:53:49;;;;;;;1.33;0.60;;;6.80;99.90;;;;;;4962926;29;20032;-80
2023/04/26 02:56:15;;;;;;;1.05;0.65;;;6.80;99.90;;;;;;4962775;29;20040;-78
2023/04/26 02:58:41;;;;;;;0.68;0.40;;;6.80;99.90;;;;;;4963668;28;20024;-79
2023/04/26 03:01:07;;;;;;;0.50;0.50;;;6.80;99.90;;;;;;4963704;29;20423;-79
2023/04/26 03:03:33;;;;;;;0.77;0.60;;;6.80;99.90;;;;;;4964026;28;20027;-80
2023/04/26 03:05:58;;;;;;;0.73;0.40;;;6.80;99.90;;;;;;4961992;29;20369;-79
2023/04/26 03:08:24;;;;;;;0.40;0.40;;;6.70;99.90;;;;;;4962266;29;20027;-77
2023/04/26 03:10:50;;;;;;;0.47;0.47;;;6.70;99.90;;;;;;4963555;28;20114;-81
2023/04/26 03:13:15;;;;;;;0.43;0.43;;;6.60;99.90;;;;;;4962848;29;20503;-79
2023/04/26 03:15:45;;;;;;;0.35;0.30;;;6.50;99.90;;;;;;4962835;29;20392;-80
2023/04/26 03:18:10;;;;;;;0.55;0.40;;;6.40;99.90;;;;;;4964093;28;20024;-79
2023/04/26 03:20:36;;;;;;;0.88;0.70;;;6.30;99.90;;;;;;4963257;29;20034;-79
2023/04/26 03:23:02;;;;;;;0.40;0.40;;;6.10;99.90;;;;;;4964001;29;20034;-79
2023/04/26 03:25:28;;;;;;;0.32;0.32;;;6.10;99.90;;;;;;4964352;28;20027;-78
2023/04/26 03:27:55;;;;;;;0.40;0.40;;;6.10;99.90;;;;;;4964014;29;20467;-80
2023/04/26 03:30:21;;;;;;;0.98;0.68;;;6.10;99.90;;;;;;4965166;28;20103;-79
2023/04/26 03:32:46;;;;;;;2.20;0.55;;;6.10;99.90;;;;;;4964381;29;20034;-79
2023/04/26 03:35:12;;;;;;;0.80;0.77;;;6.10;99.90;;;;;;4973615;23;20090;-77
2023/04/26 03:37:38;;;;;;;0.43;0.43;;;6.10;99.90;;;;;;4953111;29;20036;-77
2023/04/26 03:40:08;;;;;;;1.20;0.50;;;6.10;99.90;;;;;;4953816;29;20023;-78
2023/04/26 03:42:35;;;;;;;2.63;0.65;;;6.10;99.90;;;;;;4954650;28;20147;-78
2023/04/26 03:45:02;;;;;;;1.55;0.55;;;6.10;99.90;;;;;;4954178;28;20043;-77
2023/04/26 03:47:31;;;;;;;0.82;0.63;;;6.10;99.90;;;;;;4952296;29;20101;-78
2023/04/26 03:49:57;;;;;;;0.73;0.73;;;6.10;99.90;;;;;;4953471;29;20028;-78
2023/04/26 03:52:23;;;;;;;0.75;0.65;;;6.00;99.90;;;;;;4953611;29;20066;-78
2023/04/26 03:54:48;;;;;;;1.75;0.50;;;6.00;99.90;;;;;;4953003;29;20024;-78
2023/04/26 03:57:14;;;;;;;0.57;0.55;;;6.00;99.90;;;;;;4953308;29;20035;-78
2023/04/26 03:59:39;;;;;;;1.17;0.60;;;6.10;99.90;;;;;;4953593;29;20027;-78
2023/04/26 04:02:06;;;;;;;0.80;0.80;;;6.10;99.90;;;;;;4954623;29;20020;-78
2023/04/26 04:04:31;;;;;;;1.15;0.73;;;5.90;99.90;;;;;;4953327;29;20118;-78
2023/04/26 04:06:58;;;;;;;0.40;0.40;;;5.80;99.90;;;;;;4954633;29;20099;-79
2023/04/26 04:09:24;;;;;;;1.10;0.50;;;5.80;99.90;;;;;;4953209;29;20054;-77
2023/04/26 04:11:51;;;;;;;0.60;0.60;;;5.90;99.90;;;;;;4954512;28;20027;-78
2023/04/26 04:14:16;;;;;;;0.68;0.68;;;5.90;99.90;;;;;;4954137;28;20531;-77
2023/04/26 04:16:42;;;;;;;1.00;0.85;;;5.90;99.90;;;;;;4953253;28;20027;-79
2023/04/26 04:19:08;;;;;;;2.72;1.98;;;5.90;99.90;;;;;;4953175;28;20034;-78
2023/04/26 04:21:33;;;;;;;3.72;2.38;;;5.80;99.90;;;;;;4953390;29;20030;-77
2023/04/26 04:23:59;;;;;;;1.33;1.20;;;5.80;99.90;;;;;;4954454;29;20034;-78
2023/04/26 04:26:26;;;;;;;0.95;0.90;;;5.70;99.90;;;;;;4953203;29;20044;-78
2023/04/26 04:28:54;;;;;;;2.40;1.17;;;5.70;99.90;;;;;;4952913;29;20121;-78
2023/04/26 04:31:20;;;;;;;1.10;1.10;;;5.80;99.90;;;;;;4953463;29;20059;-77
2023/04/26 04:33:46;;;;;;;1.35;1.05;;;5.80;99.90;;;;;;4954290;28;20027;-78
2023/04/26 04:36:12;;;;;;;0.98;0.98;;;5.90;99.90;;;;;;4954256;28;20039;-76
2023/04/26 04:38:37;;;;;;;0.85;0.85;;;7.20;99.90;;;;;;4952945;29;20114;-76
2023/04/26 04:41:03;;;;;;;1.30;1.00;;;7.00;99.90;;;;;;4957111;29;20019;-77
2023/04/26 04:43:29;;;;;;;1.35;1.10;;;6.70;99.90;;;;;;4953001;28;20031;-78
2023/04/26 04:45:54;;;;;;;1.08;0.98;;;6.60;99.90;;;;;;4953597;29;20102;-78
2023/04/26 04:48:20;;;;;;;0.80;0.73;;;6.50;99.90;;;;;;4952674;29;20031;-78
2023/04/26 04:50:46;;;;;;;1.60;1.35;;;6.50;99.90;;;;;;4953827;28;20448;-78
2023/04/26 04:53:12;;;;;;;2.13;1.60;;;6.50;99.90;;;;;;4953208;29;20027;-78
2023/04/26 04:55:38;;;;;;;1.80;1.38;;;6.60;99.90;;;;;;4953292;28;20027;-78
2023/04/26 04:58:03;;;;;;;12.15;5.05;;;6.70;99.90;;;;;;4956185;28;20034;-77
2023/04/26 05:00:29;;;;;;;6.20;3.40;;;6.70;99.90;;;;;;4956784;29;20097;-77
2023/04/26 05:02:55;;;;;;;4.30;1.42;;;6.80;99.90;;;;;;4970266;29;20123;-79
2023/04/26 05:05:21;;;;;;;1.48;1.23;;;7.00;99.90;;;;;;4971039;29;20023;-79
2023/04/26 05:07:47;;;;;;;1.70;1.45;;;7.10;99.90;;;;;;4959118;29;20155;-77
2023/04/26 05:10:13;;;;;;;6.13;2.50;;;7.20;99.90;;;;;;4956550;29;20117;-78
2023/04/26 05:12:39;;;;;;;2.92;1.77;;;7.30;99.90;;;;;;4957542;28;20035;-77
2023/04/26 05:15:05;;;;;;;2.15;1.67;;;7.40;99.90;;;;;;4955959;28;20024;-77
2023/04/26 05:17:32;;;;;;;4.72;2.28;;;7.50;99.90;;;;;;4953812;28;20027;-78
2023/04/26 05:19:58;;;;;;;1.75;1.60;;;7.50;99.90;;;;;;4956198;29;20034;-78
2023/04/26 05:22:25;;;;;;;2.58;1.92;;;7.60;99.90;;;;;;4955738;28;20023;-78
2023/04/26 05:24:51;;;;;;;2.08;1.88;;;7.70;99.90;;;;;;4955142;29;20027;-78
2023/04/26 05:27:16;;;;;;;3.45;2.00;;;7.80;99.90;;;;;;4955204;29;20468;-77
2023/04/26 05:29:42;;;;;;;2.33;1.80;;;7.80;99.90;;;;;;4955648;29;20019;-78
2023/04/26 05:32:08;;;;;;;2.08;1.42;;;7.80;99.90;;;;;;4955826;29;20114;-78
2023/04/26 05:34:33;;;;;;;2.45;2.03;;;7.90;99.90;;;;;;4955421;29;20035;-78
2023/04/26 05:36:59;;;;;;;6.72;2.08;;;7.90;99.90;;;;;;4955408;29;20039;-77
2023/04/26 05:39:25;;;;;;;1.58;1.20;;;8.00;99.90;;;;;;4956183;29;20047;-77
2023/04/26 05:41:51;;;;;;;3.03;2.08;;;8.10;99.90;;;;;;4956708;28;20028;-77
2023/04/26 05:44:16;;;;;;;3.85;1.88;;;8.20;99.90;;;;;;4956757;28;20031;-77
2023/04/26 05:46:42;;;;;;;6.72;1.33;;;8.20;99.90;;;;;;4956271;28;20027;-78
2023/04/26 05:49:08;;;;;;;2.53;1.42;;;8.20;99.90;;;;;;4955409;29;20061;-77
2023/04/26 05:51:34;;;;;;;3.30;1.70;;;8.10;99.90;;;;;;4956707;29;20451;-77
2023/04/26 05:53:59;;;;;;;3.95;1.77;;;8.10;99.90;;;;;;4953971;29;20393;-76
2023/04/26 05:56:25;;;;;;;3.92;2.25;;;8.10;99.00;;;;;;4954754;29;20063;-78
2023/04/26 05:58:52;;;;;;;5.70;2.13;;;8.10;98.50;;;;;;4956819;28;20023;-76
2023/04/26 06:01:18;;;;;;;3.58;1.38;;;8.20;98.40;;;;;;4956221;28;20054;-77
2023/04/26 06:03:45;;;;;;;5.53;1.80;;;8.40;98.20;;;;;;4955319;29;20031;-78
2023/04/26 06:06:11;;;;;;;8.55;2.13;;;8.60;97.60;;;;;;4953674;28;20088;-77
2023/04/26 06:08:37;;;;;;;1.50;1.25;;;8.80;96.60;;;;;;4954793;29;20023;-77
2023/04/26 06:11:03;;;;;;;3.10;1.85;;;8.90;95.50;;;;;;4956531;28;20027;-77
2023/04/26 06:13:28;;;;;;;7.60;1.70;;;8.90;95.20;;;;;;4956246;29;20490;-78
2023/04/26 06:15:54;;;;;;;6.63;1.88;;;8.90;94.50;;;;;;4955929;29;20023;-77
2023/04/26 06:18:19;;;;;;;2.47;1.85;;;9.00;94.70;;;;;;4955595;29;20027;-77
2023/04/26 06:20:45;;;;;;;2.83;1.35;;;8.90;94.10;;;;;;4955222;29;20472;-78
2023/04/26 06:23:11;;;;;;;5.05;1.33;;;8.90;94.60;;;;;;4955259;29;20031;-78
2023/04/26 06:25:42;;;;;;;2.75;1.42;;;8.90;94.00;;;;;;4956314;28;20032;-78
2023/04/26 06:28:08;;;;;;;4.05;1.80;;;8.90;94.70;;;;;;4954608;29;20076;-79
2023/04/26 06:30:34;;;;;;;3.88;1.30;;;8.90;94.10;;;;;;4956181;29;20515;-78
2023/04/26 06:32:59;;;;;;;3.45;1.38;;;8.90;94.30;;;;;;4956268;29;20484;-78
2023/04/26 06:35:25;;;;;;;4.93;1.13;;;9.10;94.60;;;;;;4954603;29;20568;-78
2023/04/26 06:37:52;;;;;;;2.42;1.27;;;9.30;94.30;;;;;;4954247;29;20027;-78
2023/04/26 06:40:18;;;;;;;5.55;1.30;;;9.40;94.20;;;;;;4954958;29;20019;-78
2023/04/26 06:42:44;;;;;;;2.80;0.98;;;9.40;93.50;;;;;;4954724;29;20035;-77
2023/04/26 06:45:10;;;;;;;1.52;1.10;;;9.40;92.50;;;;;;4955648;29;20027;-78
2023/04/26 06:47:36;;;;;;;2.92;1.15;;;9.40;93.40;;;;;;4955181;29;20038;-78
2023/04/26 06:50:03;;;;;;;2.88;1.40;;;9.50;93.30;;;;;;4956007;28;20023;-77
2023/04/26 06:52:29;;;;;;;2.15;1.42;;;10.10;99.90;;;;;;4953523;29;20395;-77
2023/04/26 06:54:55;;;;;;;2.85;1.58;;;11.10;96.60;;;;;;4955268;28;20028;-76
2023/04/26 06:57:21;;;;;;;2.72;1.33;;;11.70;94.70;;;;;;4959803;29;20030;-77
2023/04/26 06:59:46;;;;;;;3.60;1.38;;;12.40;93.00;;;;;;4973106;29;20015;-78
2023/04/26 07:02:12;;;;;;;2.05;1.42;;;12.50;87.10;;;;;;4970113;29;20030;-79
2023/04/26 07:04:38;;;;;;;3.30;1.35;;;12.00;81.40;;;;;;4954995;29;20038;-77
2023/04/26 07:07:03;;;;;;;4.50;1.20;;;11.40;84.30;;;;;;4955039;29;20027;-78
2023/04/26 07:09:29;;;;;;;2.65;0.80;;;11.00;87.50;;;;;;4954173;29;20369;-78
2023/04/26 07:11:55;;;;;;;3.67;1.13;;;10.90;85.60;;;;;;4955381;28;20078;-78
2023/04/26 07:14:20;;;;;;;4.68;1.00;;;10.70;86.30;;;;;;4955602;29;20126;-78
2023/04/26 07:16:46;;;;;;;1.10;1.00;;;10.60;88.60;;;;;;4954206;29;20020;-78
2023/04/26 07:19:12;;;;;;;2.28;1.15;;;10.70;88.20;;;;;;4953813;28;20118;-77
2023/04/26 07:21:37;;;;;;;0.88;0.80;;;10.60;86.40;;;;;;4955582;29;20029;-77
2023/04/26 07:24:03;;;;;;;1.38;1.27;;;10.60;85.70;;;;;;4955439;29;20038;-78
2023/04/26 07:26:29;;;;;;;2.55;1.20;;;10.70;87.80;;;;;;4954156;29;20062;-77
2023/04/26 07:28:55;;;;;;;1.05;0.95;;;10.70;86.40;;;;;;4955052;29;20042;-78
2023/04/26 07:31:21;;;;;;;1.98;1.00;;;11.80;95.10;;;;;;4956900;28;20027;-78
2023/04/26 07:33:46;;;;;;;3.17;1.25;;;12.30;91.40;;;;;;4956827;29;20114;-78
2023/04/26 07:36:12;;;;;;;3.90;1.48;;;12.50;89.20;;;;;;4954816;29;20102;-78
2023/04/26 07:38:38;;;;;;;2.83;1.55;;;12.50;84.60;;;;;;4956674;29;20050;-78
2023/04/26 07:41:03;;;;;;;7.88;1.30;;;12.90;87.10;;;;;;4958696;29;20039;-79
2023/04/26 07:43:30;;;;;;;7.00;1.00;;;12.60;83.60;;;;;;4961222;28;20075;-79
2023/04/26 07:46:00;;;;;;;1.85;1.00;;;12.90;85.00;;;;;;4959206;29;20034;-78
2023/04/26 07:48:26;;;;;;;6.60;1.50;;;12.90;81.30;;;;;;4958603;29;20051;-79
2023/04/26 07:50:52;;;;;;;1.67;0.95;;;12.80;84.00;;;;;;4960879;29;20027;-78
2023/04/26 07:53:18;;;;;;;1.88;0.82;;;12.90;83.00;;;;;;4962118;29;20028;-78
2023/04/26 07:55:43;;;;;;;2.55;1.23;;;12.90;81.70;;;;;;4959145;29;20066;-78
2023/04/26 07:58:13;;;;;;;1.33;0.82;;;12.60;77.50;;;;;;4958622;29;20031;-78
2023/04/26 08:00:39;;;;;;;2.17;0.82;;;12.50;78.50;;;;;;4963300;29;20019;-78
2023/04/26 08:03:05;;;;;;;13.57;5.57;;;12.10;78.90;;;;;;4960442;29;20515;-77
2023/04/26 08:05:31;;;;;;;3.00;1.60;;;12.00;80.10;;;;;;4961979;29;20050;-78
2023/04/26 08:07:57;;;;;;;2.95;0.63;;;11.70;78.40;;;;;;4958004;29;20031;-78
2023/04/26 08:10:22;;;;;;;1.70;0.80;;;11.70;78.00;;;;;;4965276;29;20035;-79
2023/04/26 08:12:49;;;;;;;3.15;1.50;;;11.60;77.90;;;;;;4964275;29;20132;-78
2023/04/26 08:15:15;;;;;;;3.15;0.63;;;11.40;80.50;;;;;;4963360;29;20334;-78
2023/04/26 08:17:40;;;;;;;2.03;1.10;;;11.40;80.10;;;;;;4963100;29;20038;-78
2023/04/26 08:20:08;;;;;;;4.07;1.20;;;11.30;82.30;;;;;;4963241;29;20405;-78
2023/04/26 08:22:33;;;;;;;3.95;1.15;;;11.40;82.00;;;;;;4962250;29;20054;-78
2023/04/26 08:24:59;;;;;;;2.60;2.22;;;11.50;82.80;;;;;;4955962;29;20451;-78
2023/04/26 08:27:25;;;;;;;6.32;1.90;;;11.80;82.80;;;;;;4954941;29;20015;-77
2023/04/26 08:29:51;;;;;;;4.70;1.15;;;11.90;81.50;;;;;;4962685;28;20043;-79
2023/04/26 08:32:16;;;;;;;2.83;0.95;;;12.30;88.70;;;;;;4964649;29;20024;-80
2023/04/26 08:34:42;;;;;;;1.65;0.95;;;12.80;83.60;;;;;;4964131;29;20082;-78
2023/04/26 08:37:08;;;;;;;2.88;0.65;;;12.90;76.40;;;;;;4969520;29;20087;-78
2023/04/26 08:39:33;;;;;;;6.18;2.38;;;12.50;76.30;;;;;;4968839;29;20104;-78
2023/04/26 08:42:07;;;;;;;6.03;2.58;;;12.70;78.90;;;;;;4965425;29;20031;-79
2023/04/26 08:44:37;;;;;;;5.32;3.05;;;12.80;77.90;;;;;;4970243;28;20464;-80
2023/04/26 08:47:08;;;;;;;3.53;1.70;;;12.70;74.90;;;;;;4966229;29;20023;-80
2023/04/26 08:49:41;;;;;;;1.42;1.02;;;12.90;75.80;;;;;;4969862;29;20034;-79
2023/04/26 08:52:13;;;;;;;0.77;0.57;;;12.60;75.70;;;;;;4970345;28;20049;-78
2023/04/26 08:54:40;;;;;;;0.77;0.77;;;12.40;75.60;;;;;;4980605;28;20042;-79
2023/04/26 08:57:07;;;;;;;7.72;3.70;;;12.40;75.40;;;;;;4980172;28;20119;-81
2023/04/26 08:59:36;;;;;;;5.80;3.55;;;12.60;76.80;;;;;;4971033;29;20023;-80
2023/04/26 09:02:04;;;;;;;2.95;1.27;;;12.60;77.20;;;;;;4971034;29;20043;-82
2023/04/26 09:04:30;;;;;;;0.50;0.50;;;12.60;77.90;;;;;;4972604;28;20031;-82
2023/04/26 09:07:00;;;;;;;0.82;0.70;;;12.80;76.60;;;;;;4972814;29;20023;-82
2023/04/26 09:09:27;;;;;;;0.85;0.40;;;12.90;72.60;;;;;;4969940;29;20029;-81
2023/04/26 09:12:00;;;;;;;1.15;0.50;;;13.20;69.70;;;;;;4970368;29;20554;-82
2023/04/26 09:14:26;;;;;;;2.25;0.50;;;13.10;69.80;;;;;;4961500;28;20035;-79
2023/04/26 09:16:52;;;;;;;0.40;0.40;;;12.90;68.00;;;;;;4957102;28;20106;-77
2023/04/26 09:19:37;;;;;;;0.85;0.82;;;13.00;67.10;;;;;;4959518;29;20027;-78
2023/04/26 09:22:03;;;;;;;1.08;0.73;;;13.00;68.00;;;;;;4964977;28;20026;-79
2023/04/26 09:24:46;;;;;;;1.13;0.70;;;12.90;68.20;;;;;;4956161;29;20024;-79
2023/04/26 09:27:12;;;;;;;0.80;0.80;;;12.80;67.20;;;;;;4960309;29;20027;-80
2023/04/26 09:29:38;;;;;;;0.90;0.60;;;12.90;68.30;;;;;;4965610;28;20027;-79
2023/04/26 09:32:04;;;;;;;1.00;0.68;;;12.90;67.30;;;;;;4965483;29;20028;-81
2023/04/26 09:34:45;;;;;;;0.77;0.75;;;12.80;68.10;;;;;;4968493;28;20038;-81
2023/04/26 09:37:12;;;;;;;1.02;0.60;;;12.90;68.50;;;;;;4986940;23;20051;-80
2023/04/26 09:39:40;;;;;;;1.17;0.73;;;13.00;67.10;;;;;;4964314;29;20027;-78
2023/04/26 09:42:10;;;;;;;3.22;0.85;;;13.10;65.70;;;;;;4965350;28;20028;-78
2023/04/26 09:44:36;;;;;;;0.63;0.45;;;13.30;65.90;;;;;;4963478;29;20028;-83
2023/04/26 09:47:08;;;;;;;0.60;0.60;;;13.20;66.00;;;;;;4961170;28;20055;-79
2023/04/26 09:49:47;;;;;;;1.77;1.25;;;13.20;63.90;;;;;;4964466;28;20027;-78
2023/04/26 09:52:14;;;;;;;0.35;0.35;;;13.20;63.30;;;;;;4965788;29;20030;-79
2023/04/26 09:54:44;;;;;;;0.85;0.60;;;13.30;61.80;;;;;;4962397;28;20034;-80
2023/04/26 09:57:15;;;;;;;1.13;1.00;;;13.40;66.40;;;;;;4962481;28;20487;-79
2023/04/26 09:59:45;;;;;;;0.95;0.50;;;13.40;62.90;;;;;;4961587;28;20024;-79
2023/04/26 10:02:22;;;;;;;1.27;0.52;;;13.30;62.50;;;;;;4962062;29;20019;-79
2023/04/26 10:04:54;;;;;;;1.73;0.40;;;13.30;62.70;;;;;;4963730;29;20574;-79
2023/04/26 10:07:22;;;;;;;1.05;0.55;;;13.20;61.30;;;;;;4963537;28;20048;-79
2023/04/26 10:09:48;;;;;;;5.45;0.68;;;13.40;61.40;;;;;;4963195;29;20066;-79
2023/04/26 10:12:19;;;;;;;0.75;0.40;;;13.30;60.80;;;;;;4965304;29;20041;-79
2023/04/26 10:14:45;;;;;;;0.50;0.40;;;13.20;60.80;;;;;;4965000;29;20106;-78
2023/04/26 10:17:12;;;;;;;1.48;0.65;;;13.10;61.00;;;;;;4965220;28;20031;-78
2023/04/26 10:19:42;;;;;;;1.35;0.57;;;13.10;61.90;;;;;;4961544;29;20034;-79
2023/04/26 10:22:13;;;;;;;2.10;0.70;;;13.20;63.20;;;;;;4959992;29;20042;-79
2023/04/26 10:24:39;;;;;;;0.95;0.60;;;13.10;62.30;;;;;;4959942;29;20476;-78
2023/04/26 10:27:05;;;;;;;0.75;0.52;;;13.10;62.30;;;;;;4959548;28;20031;-76
2023/04/26 10:29:54;;;;;;;2.10;0.30;;;13.00;61.50;;;;;;4960714;29;20031;-78
2023/04/26 10:32:20;;;;;;;0.73;0.40;;;13.00;61.50;;;;;;4945210;28;20041;-79
2023/04/26 10:35:29;;;;;;;0.75;0.52;;;13.00;61.30;;;;;;4961111;29;20023;-79
2023/04/26 10:38:00;;;;;;;0.47;0.47;;;13.00;61.40;;;;;;4882374;29;20037;-79
2023/04/26 10:40:37;;;;;;;0.45;0.30;;;13.00;61.60;;;;;;4882108;29;20467;-78
2023/04/26 10:43:14;;;;;;;1.10;0.22;;;13.30;61.50;;;;;;4929251;28;20042;-78
2023/04/26 10:45:42;;;;;;;0.30;0.30;;;13.40;59.10;;;;;;4957951;28;20027;-77
2023/04/26 10:48:19;;;;;;;0.75;0.35;;;13.80;58.20;;;;;;4958797;28;20027;-77
2023/04/26 10:51:00;;;;;;;1.00;0.50;;;14.00;59.90;;;;;;4957732;28;20081;-78
2023/04/26 10:53:53;;;;;;;1.10;0.60;;;14.00;59.50;;;;;;4956882;28;20078;-77
2023/04/26 10:56:30;;;;;;;1.38;0.50;;;13.80;58.20;;;;;;4946231;28;20035;-77
2023/04/26 10:59:10;;;;;;;5.35;0.80;;;13.50;58.90;;;;;;4958159;29;20031;-78
2023/04/26 11:01:37;;;;;;;0.20;0.20;;;13.40;60.70;;;;;;4956299;29;20114;-78
2023/04/26 11:04:12;;;;;;;0.50;0.47;;;13.30;61.10;;;;;;4958799;29;20038;-78
2023/04/26 11:06:51;;;;;;;0.50;0.47;;;13.30;60.00;;;;;;4960644;28;20089;-79
2023/04/26 11:09:39;;;;;;;2.75;0.45;;;13.20;59.90;;;;;;4957603;29;20027;-79
2023/04/26 11:12:09;;;;;;;4.57;0.55;;;13.20;61.80;;;;;;4958510;28;20535;-78
2023/04/26 11:14:35;;;;;;;0.93;0.40;;;13.40;60.90;;;;;;4958540;29;20473;-78
2023/04/26 11:17:07;;;;;;;0.75;0.30;;;13.70;59.70;;;;;;4957617;28;20026;-78
2023/04/26 11:19:34;;;;;;;2.58;0.45;;;13.90;58.60;;;;;;4958968;29;20472;-78
2023/04/26 11:22:00;;;;;;;0.40;0.40;;;14.20;60.30;;;;;;4959155;29;20031;-78
2023/04/26 11:24:30;;;;;;;0.28;0.20;;;14.40;57.20;;;;;;4957014;29;20050;-78
2023/04/26 11:26:56;;;;;;;0.63;0.30;;;14.50;57.70;;;;;;4958281;28;20023;-77
2023/04/26 11:29:23;;;;;;;0.20;0.20;;;14.60;62.80;;;;;;4958676;29;20046;-77
2023/04/26 11:31:56;;;;;;;0.40;0.40;;;14.50;57.90;;;;;;4956858;29;20090;-78
2023/04/26 11:34:35;;;;;;;1.52;0.52;;;14.60;57.70;;;;;;4958261;29;20027;-77
2023/04/26 11:37:03;;;;;;;0.95;0.30;;;14.70;57.50;;;;;;4957292;28;20042;-78
2023/04/26 11:39:31;;;;;;;0.63;0.20;;;14.40;56.90;;;;;;4956379;28;20019;-77
2023/04/26 11:42:06;;;;;;;0.82;0.40;;;14.20;58.40;;;;;;4957968;29;20444;-77
2023/04/26 11:44:32;;;;;;;1.55;0.47;;;13.90;58.10;;;;;;4957591;29;20054;-77
2023/04/26 11:47:00;;;;;;;1.02;0.60;;;13.90;59.30;;;;;;4956635;28;20053;-78
2023/04/26 11:49:26;;;;;;;1.30;0.98;;;13.70;59.20;;;;;;4957714;29;20126;-77
2023/04/26 11:51:53;;;;;;;0.30;0.30;;;14.00;60.50;;;;;;4956516;29;20051;-78
2023/04/26 11:54:33;;;;;;;0.25;0.25;;;14.10;59.70;;;;;;4957684;29;20035;-78
2023/04/26 11:56:59;;;;;;;0.98;0.55;;;14.30;58.60;;;;;;4955980;28;20035;-77
2023/04/26 11:59:28;;;;;;;3.38;2.15;;;14.50;59.70;;;;;;4953075;29;20552;-77
2023/04/26 12:01:57;;;;;;;0.50;0.50;;;14.60;59.70;;;;;;4953501;29;20098;-76
2023/04/26 12:04:30;;;;;;;1.75;0.82;;;14.20;56.40;;;;;;4952162;28;20088;-76
2023/04/26 12:06:56;;;;;;;1.25;1.15;;;14.00;56.20;;;;;;4957240;28;20063;-76
2023/04/26 12:09:23;;;;;;;0.73;0.73;;;13.70;57.40;;;;;;4956988;29;20365;-76
2023/04/26 12:12:00;;;;;;;1.27;1.02;;;13.80;60.00;;;;;;4957349;29;20034;-76
2023/04/26 12:14:37;;;;;;;0.68;0.50;;;13.70;59.00;;;;;;4957330;28;20058;-76
2023/04/26 12:17:05;;;;;;;7.28;2.58;;;13.60;58.10;;;;;;4957616;28;20026;-76
2023/04/26 12:19:38;;;;;;;8.88;2.88;;;13.50;59.50;;;;;;4956958;29;20023;-76
2023/04/26 12:22:07;;;;;;;1.65;1.27;;;13.60;58.40;;;;;;4956983;29;20051;-76
2023/04/26 12:24:35;;;;;;;1.42;0.80;;;13.90;59.20;;;;;;4956735;29;20027;-76
2023/04/26 12:27:07;;;;;;;1.48;0.70;;;14.10;58.90;;;;;;4955603;28;20031;-76
2023/04/26 12:29:33;;;;;;;2.47;0.90;;;13.90;58.20;;;;;;4955235;29;20465;-76
2023/04/26 12:32:00;;;;;;;0.50;0.40;;;13.80;57.60;;;;;;4955736;29;20059;-76
2023/04/26 12:34:26;;;;;;;0.50;0.40;;;13.80;56.90;;;;;;4955263;29;20028;-76
2023/04/26 12:36:52;;;;;;;1.05;0.65;;;13.80;55.90;;;;;;4955293;28;20031;-76
2023/04/26 12:39:17;;;;;;;1.33;0.60;;;14.10;56.80;;;;;;4955187;29;20054;-76
2023/04/26 12:41:45;;;;;;;0.47;0.40;;;14.10;55.20;;;;;;4956580;29;20023;-76
2023/04/26 12:44:11;;;;;;;0.47;0.40;;;14.20;56.80;;;;;;4955448;28;20027;-76
2023/04/26 12:46:37;;;;;;;3.42;1.23;;;14.20;54.30;;;;;;4956110;28;20106;-76
2023/04/26 12:49:03;;;;;;;2.70;0.75;;;14.20;55.60;;;;;;4956206;29;20046;-75
2023/04/26 12:51:30;;;;;;;1.95;0.50;;;14.10;54.40;;;;;;4953640;28;20495;-76
2023/04/26 12:53:56;;;;;;;1.42;0.70;;;13.80;53.60;;;;;;4956474;29;20488;-76